createdAt,value
2016-12-01T00:00:09.849Z,60.51
2016-12-01T00:01:24.166Z,60.41
2016-12-01T00:02:38.591Z,61.08
2016-12-01T00:03:52.775Z,60.22
2016-12-01T00:05:06.899Z,60.13
2016-12-01T00:06:20.866Z,60.03
2016-12-01T00:07:35.543Z,60.13
2016-12-01T00:08:50.248Z,60.03
2016-12-01T00:10:04.517Z,60.13
2016-12-01T00:11:18.936Z,60.41
2016-12-01T00:12:32.831Z,60.22
2016-12-01T00:13:49.514Z,60.13
2016-12-01T00:15:04.035Z,60.22
2016-12-01T00:16:19.156Z,60.13
2016-12-01T00:17:34.589Z,60.22
2016-12-01T00:18:49.033Z,60.41
2016-12-01T00:20:03.220Z,60.41
2016-12-01T00:21:17.840Z,60.51
2016-12-01T00:22:32.447Z,60.41
2016-12-01T00:25:16.136Z,60.03
2016-12-01T00:26:30.360Z,60.03
2016-12-01T00:27:44.855Z,60.13
2016-12-01T00:29:00.098Z,60.13
2016-12-01T00:30:14.936Z,60.03
2016-12-01T00:31:28.701Z,59.94
2016-12-01T00:32:42.867Z,60.22
2016-12-01T00:33:57.420Z,60.03
2016-12-01T00:35:12.310Z,60.61
2016-12-01T00:36:27.996Z,60.7
2016-12-01T00:37:41.844Z,60.13
2016-12-01T00:38:55.549Z,60.51
2016-12-01T00:40:10.665Z,60.32
2016-12-01T00:41:25.730Z,60.13
2016-12-01T00:42:40.594Z,60.51
2016-12-01T00:43:55.396Z,60.13
2016-12-01T00:45:09.581Z,60.41
2016-12-01T00:46:23.742Z,60.41
2016-12-01T00:47:38.940Z,60.51
2016-12-01T00:48:52.847Z,60.7
2016-12-01T00:50:07.411Z,60.32
2016-12-01T00:51:22.160Z,60.51
2016-12-01T00:52:36.103Z,60.89
2016-12-01T00:53:51.624Z,60.41
2016-12-01T00:55:05.741Z,59.94
2016-12-01T00:56:19.931Z,59.94
2016-12-01T00:57:33.806Z,60.13
2016-12-01T00:58:47.836Z,60.51
2016-12-01T01:00:02.312Z,60.51
2016-12-01T01:01:16.213Z,60.61
2016-12-01T01:02:30.495Z,60.32
2016-12-01T01:03:45.802Z,60.51
2016-12-01T01:04:59.676Z,60.61
2016-12-01T01:06:13.600Z,60.61
2016-12-01T01:07:27.811Z,60.61
2016-12-01T01:08:41.799Z,60.99
2016-12-01T01:09:56.716Z,61.27
2016-12-01T01:11:11.064Z,60.8
2016-12-01T01:12:25.717Z,61.36
2016-12-01T01:13:39.851Z,61.18
2016-12-01T01:14:54.797Z,60.99
2016-12-01T01:16:09.406Z,61.27
2016-12-01T01:17:23.415Z,61.08
2016-12-01T01:18:38.637Z,60.8
2016-12-01T01:19:52.472Z,60.89
2016-12-01T01:21:06.986Z,61.18
2016-12-01T01:22:21.319Z,61.46
2016-12-01T01:23:35.826Z,61.18
2016-12-01T01:24:50.442Z,60.7
2016-12-01T01:26:04.562Z,60.51
2016-12-01T01:27:18.366Z,60.89
2016-12-01T01:28:32.614Z,60.51
2016-12-01T01:29:46.885Z,60.41
2016-12-01T01:31:03.283Z,60.22
2016-12-01T01:32:17.690Z,60.22
2016-12-01T01:33:32.238Z,60.41
2016-12-01T01:34:46.181Z,60.41
2016-12-01T01:36:00.343Z,60.32
2016-12-01T01:37:14.822Z,60.41
2016-12-01T01:38:29.319Z,59.94
2016-12-01T01:39:43.294Z,60.22
2016-12-01T01:40:57.364Z,60.03
2016-12-01T01:42:11.672Z,60.51
2016-12-01T01:43:26.100Z,60.99
2016-12-01T01:44:41.260Z,61.18
2016-12-01T01:45:55.531Z,60.41
2016-12-01T01:47:09.357Z,60.61
2016-12-01T01:48:23.065Z,60.32
2016-12-01T01:49:38.038Z,60.41
2016-12-01T01:50:52.703Z,60.32
2016-12-01T01:52:21.374Z,60.51
2016-12-01T01:53:35.864Z,60.51
2016-12-01T01:54:50.190Z,60.41
2016-12-01T01:56:04.427Z,60.13
2016-12-01T01:57:48.524Z,60.61
2016-12-01T01:59:02.802Z,60.03
2016-12-01T02:00:16.872Z,60.03
2016-12-01T02:01:31.498Z,60.32
2016-12-01T02:02:45.658Z,60.51
2016-12-01T02:03:59.823Z,60.32
2016-12-01T02:05:13.528Z,60.51
2016-12-01T02:06:27.974Z,60.99
2016-12-01T02:07:57.473Z,60.61
2016-12-01T02:09:11.426Z,60.8
2016-12-01T02:10:25.407Z,60.32
2016-12-01T02:11:39.680Z,60.22
2016-12-01T02:12:53.817Z,60.13
2016-12-01T02:14:08.088Z,60.13
2016-12-01T02:15:22.270Z,60.22
2016-12-01T02:16:36.194Z,60.22
2016-12-01T02:17:50.531Z,60.13
2016-12-01T02:19:06.081Z,60.03
2016-12-01T02:20:19.934Z,60.22
2016-12-01T02:21:34.237Z,59.94
2016-12-01T02:22:48.606Z,60.13
2016-12-01T02:24:02.668Z,60.03
2016-12-01T02:25:17.806Z,59.75
2016-12-01T02:26:31.732Z,59.84
2016-12-01T02:27:45.929Z,59.38
2016-12-01T02:29:00.201Z,59.66
2016-12-01T02:30:14.997Z,59.94
2016-12-01T02:31:29.669Z,59.38
2016-12-01T02:32:43.619Z,59.56
2016-12-01T02:33:57.823Z,59.38
2016-12-01T02:35:13.133Z,59.38
2016-12-01T02:36:27.947Z,59.56
2016-12-01T02:37:42.055Z,59.56
2016-12-01T02:38:55.915Z,59.47
2016-12-01T02:40:09.781Z,59.56
2016-12-01T02:41:24.235Z,59.47
2016-12-01T02:42:38.289Z,59.56
2016-12-01T02:43:52.251Z,59.56
2016-12-01T02:45:06.159Z,59.56
2016-12-01T02:49:32.083Z,59.47
2016-12-01T02:50:48.668Z,59
2016-12-01T02:52:02.685Z,59.38
2016-12-01T02:53:17.505Z,59.56
2016-12-01T02:54:31.350Z,59.66
2016-12-01T02:55:45.112Z,59.47
2016-12-01T02:56:59.256Z,59.66
2016-12-01T02:58:13.477Z,58.81
2016-12-01T02:59:28.252Z,59.19
2016-12-01T03:00:42.261Z,58.81
2016-12-01T03:01:56.106Z,58.9
2016-12-01T03:03:10.332Z,59.19
2016-12-01T03:04:38.951Z,58.81
2016-12-01T03:05:53.445Z,59.19
2016-12-01T03:07:07.322Z,59
2016-12-01T03:08:21.337Z,59.28
2016-12-01T03:09:35.019Z,59.28
2016-12-01T03:10:49.023Z,59.47
2016-12-01T03:12:03.227Z,59.84
2016-12-01T03:13:32.315Z,60.03
2016-12-01T03:14:46.119Z,60.03
2016-12-01T03:16:00.042Z,60.03
2016-12-01T03:17:13.927Z,60.03
2016-12-01T03:18:27.811Z,60.41
2016-12-01T03:19:42.178Z,60.61
2016-12-01T03:20:56.549Z,60.61
2016-12-01T03:22:10.529Z,61.18
2016-12-01T03:23:24.559Z,61.08
2016-12-01T03:24:38.417Z,61.27
2016-12-01T03:25:52.653Z,61.46
2016-12-01T03:27:06.860Z,61.18
2016-12-01T03:28:20.899Z,61.93
2016-12-01T03:29:35.188Z,61.55
2016-12-01T03:30:49.252Z,61.93
2016-12-01T03:32:03.809Z,61.65
2016-12-01T03:33:18.001Z,61.65
2016-12-01T03:34:31.791Z,62.21
2016-12-01T03:35:45.828Z,62.21
2016-12-01T03:37:00.282Z,62.31
2016-12-01T03:38:14.541Z,62.31
2016-12-01T03:39:28.595Z,62.69
2016-12-01T03:40:42.878Z,62.5
2016-12-01T03:41:56.944Z,62.4
2016-12-01T03:43:11.156Z,63.07
2016-12-01T03:44:25.378Z,63.07
2016-12-01T03:45:39.551Z,63.07
2016-12-01T03:46:53.219Z,62.59
2016-12-01T03:48:07.029Z,62.59
2016-12-01T03:49:21.529Z,62.78
2016-12-01T03:50:35.201Z,62.78
2016-12-01T03:51:49.097Z,62.78
2016-12-01T03:53:03.507Z,62.59
2016-12-01T03:54:17.703Z,62.59
2016-12-01T03:55:31.414Z,62.59
2016-12-01T03:56:45.436Z,62.88
2016-12-01T03:57:59.464Z,62.78
2016-12-01T03:59:13.192Z,62.88
2016-12-01T04:00:27.840Z,62.97
2016-12-01T04:01:41.843Z,63.16
2016-12-01T04:02:55.989Z,63.45
2016-12-01T04:04:10.071Z,62.88
2016-12-01T04:05:23.837Z,62.78
2016-12-01T04:06:38.002Z,62.97
2016-12-01T04:07:54.054Z,63.07
2016-12-01T04:09:08.014Z,62.88
2016-12-01T04:10:22.091Z,62.97
2016-12-01T04:11:36.402Z,62.88
2016-12-01T04:12:50.434Z,62.88
2016-12-01T04:14:04.748Z,62.97
2016-12-01T04:15:19.103Z,63.07
2016-12-01T04:16:33.555Z,63.07
2016-12-01T04:17:47.232Z,62.78
2016-12-01T04:19:01.088Z,63.16
2016-12-01T04:20:15.349Z,63.07
2016-12-01T04:21:29.233Z,62.88
2016-12-01T04:22:43.596Z,63.07
2016-12-01T04:23:57.492Z,62.69
2016-12-01T04:25:11.274Z,62.97
2016-12-01T04:26:25.577Z,62.97
2016-12-01T04:27:39.402Z,62.69
2016-12-01T04:28:54.078Z,63.16
2016-12-01T04:30:07.876Z,62.97
2016-12-01T04:31:21.770Z,63.26
2016-12-01T04:32:37.551Z,63.45
2016-12-01T04:33:52.139Z,63.54
2016-12-01T04:35:06.868Z,63.45
2016-12-01T04:36:21.416Z,63.35
2016-12-01T04:37:35.471Z,63.35
2016-12-01T04:38:49.610Z,63.54
2016-12-01T04:40:04.348Z,63.45
2016-12-01T04:41:18.935Z,63.54
2016-12-01T04:42:33.172Z,62.78
2016-12-01T04:43:48.005Z,63.07
2016-12-01T04:45:01.905Z,62.78
2016-12-01T04:46:16.321Z,62.69
2016-12-01T04:47:31.090Z,62.31
2016-12-01T04:48:45.163Z,62.31
2016-12-01T04:50:00.274Z,62.31
2016-12-01T04:51:14.697Z,62.31
2016-12-01T04:52:29.273Z,62.31
2016-12-01T04:53:43.797Z,62.21
2016-12-01T04:54:57.761Z,62.31
2016-12-01T04:56:11.716Z,62.31
2016-12-01T04:57:26.035Z,62.02
2016-12-01T04:58:40.089Z,62.02
2016-12-01T04:59:54.789Z,62.4
2016-12-01T05:01:08.576Z,62.31
2016-12-01T05:02:23.404Z,62.21
2016-12-01T05:03:37.338Z,62.21
2016-12-01T05:04:51.559Z,62.31
2016-12-01T05:06:06.392Z,62.59
2016-12-01T05:07:20.673Z,62.21
2016-12-01T05:08:34.982Z,62.5
2016-12-01T05:11:18.527Z,62.21
2016-12-01T05:12:33.753Z,62.31
2016-12-01T05:13:48.023Z,62.5
2016-12-01T05:15:16.743Z,62.31
2016-12-01T05:16:30.806Z,61.93
2016-12-01T05:17:45.324Z,62.24
2016-12-01T05:18:59.632Z,62.12
2016-12-01T05:20:13.978Z,62.34
2016-12-01T05:21:27.827Z,62.12
2016-12-01T05:22:41.675Z,62.21
2016-12-01T05:23:56.332Z,62.34
2016-12-01T05:25:13.294Z,62.34
2016-12-01T05:26:27.561Z,64.23
2016-12-01T05:27:41.813Z,65.37
2016-12-01T05:28:55.574Z,64.9
2016-12-01T05:30:10.064Z,63.01
2016-12-01T05:31:39.178Z,62.43
2016-12-01T05:32:53.517Z,61.77
2016-12-01T05:34:07.719Z,62.05
2016-12-01T05:35:21.786Z,61.49
2016-12-01T05:36:35.516Z,61.68
2016-12-01T05:37:49.408Z,61.68
2016-12-01T05:39:03.206Z,61.87
2016-12-01T05:40:17.150Z,61.96
2016-12-01T05:41:31.615Z,61.68
2016-12-01T05:42:45.509Z,61.68
2016-12-01T05:43:59.973Z,61.77
2016-12-01T05:45:14.304Z,61.96
2016-12-01T05:46:29.490Z,61.96
2016-12-01T05:47:44.005Z,61.96
2016-12-01T05:48:58.683Z,61.77
2016-12-01T05:50:13.364Z,61.58
2016-12-01T05:51:27.511Z,61.77
2016-12-01T05:52:42.411Z,61.58
2016-12-01T05:53:57.791Z,61.87
2016-12-01T05:55:12.043Z,62.34
2016-12-01T05:56:27.206Z,62.15
2016-12-01T05:57:41.422Z,62.34
2016-12-01T05:58:55.202Z,62.43
2016-12-01T06:00:09.763Z,62.43
2016-12-01T06:01:24.104Z,62.62
2016-12-01T06:02:38.262Z,62.53
2016-12-01T06:03:53.163Z,62.53
2016-12-01T06:05:07.890Z,62.24
2016-12-01T06:06:21.879Z,62.72
2016-12-01T06:07:36.450Z,62.62
2016-12-01T06:08:50.408Z,62.62
2016-12-01T06:10:05.211Z,62.82
2016-12-01T06:11:19.624Z,62.72
2016-12-01T06:12:33.919Z,63.01
2016-12-01T06:13:47.947Z,62.82
2016-12-01T06:15:02.294Z,62.91
2016-12-01T06:16:17.311Z,62.53
2016-12-01T06:17:47.501Z,62.72
2016-12-01T06:19:01.897Z,62.62
2016-12-01T06:20:16.493Z,62.53
2016-12-01T06:21:30.416Z,62.72
2016-12-01T06:22:45.457Z,63.01
2016-12-01T06:24:00.586Z,63.95
2016-12-01T06:25:15.088Z,63.85
2016-12-01T06:26:29.211Z,64.52
2016-12-01T06:27:43.430Z,64.23
2016-12-01T06:28:57.797Z,64.81
2016-12-01T06:30:12.071Z,65.06
2016-12-01T06:31:26.463Z,64.96
2016-12-01T06:32:40.402Z,65.06
2016-12-01T06:33:54.209Z,65.09
2016-12-01T06:35:23.439Z,64.77
2016-12-01T06:36:38.574Z,64.71
2016-12-01T06:37:53.303Z,65.19
2016-12-01T06:39:07.394Z,65.25
2016-12-01T06:40:21.456Z,65.53
2016-12-01T06:41:35.766Z,65.53
2016-12-01T06:42:52.733Z,65.66
2016-12-01T06:44:06.642Z,65.56
2016-12-01T06:45:20.575Z,64.87
2016-12-01T06:46:34.822Z,65.28
2016-12-01T06:47:48.754Z,65.09
2016-12-01T06:49:03.176Z,64.9
2016-12-01T06:50:17.872Z,65.19
2016-12-01T06:51:32.057Z,64.9
2016-12-01T06:52:46.194Z,65
2016-12-01T06:54:00.260Z,65.09
2016-12-01T06:55:14.391Z,65
2016-12-01T06:56:28.622Z,64.9
2016-12-01T06:57:42.794Z,65
2016-12-01T06:58:56.931Z,64.9
2016-12-01T07:00:10.940Z,64.9
2016-12-01T07:01:25.062Z,65.28
2016-12-01T07:02:39.497Z,64.81
2016-12-01T07:03:53.816Z,64.81
2016-12-01T07:05:07.816Z,65
2016-12-01T07:06:21.698Z,64.71
2016-12-01T07:07:35.793Z,65.09
2016-12-01T07:10:19.237Z,65
2016-12-01T07:11:33.367Z,64.71
2016-12-01T07:12:47.752Z,65.19
2016-12-01T07:14:01.932Z,65.19
2016-12-01T07:15:17.359Z,65.28
2016-12-01T07:16:31.555Z,65.47
2016-12-01T07:17:46.041Z,65.75
2016-12-01T07:19:00.906Z,65.94
2016-12-01T07:20:20.233Z,66.32
2016-12-01T07:21:34.580Z,66.7
2016-12-01T07:22:48.529Z,66.41
2016-12-01T07:24:02.905Z,66.41
2016-12-01T07:25:16.856Z,66.8
2016-12-01T07:26:30.739Z,66.99
2016-12-01T07:27:44.748Z,66.41
2016-12-01T07:28:59.431Z,66.41
2016-12-01T07:30:13.542Z,66.41
2016-12-01T07:31:27.811Z,66.7
2016-12-01T07:32:42.361Z,66.89
2016-12-01T07:33:56.697Z,66.8
2016-12-01T07:36:40.952Z,66.8
2016-12-01T07:37:54.855Z,66.89
2016-12-01T07:39:08.788Z,66.89
2016-12-01T07:40:23.114Z,66.8
2016-12-01T07:41:36.824Z,67.36
2016-12-01T07:42:50.725Z,67.27
2016-12-01T07:44:05.097Z,67.55
2016-12-01T07:45:19.014Z,67.18
2016-12-01T07:46:33.340Z,67.08
2016-12-01T07:47:47.757Z,67.36
2016-12-01T07:49:01.748Z,67.46
2016-12-01T07:50:15.799Z,67.55
2016-12-01T07:51:29.529Z,68.02
2016-12-01T07:52:43.404Z,67.93
2016-12-01T07:54:12.394Z,68.02
2016-12-01T07:55:41.133Z,67.46
2016-12-01T07:56:55.790Z,67.65
2016-12-01T07:58:09.900Z,68.12
2016-12-01T07:59:24.397Z,68.02
2016-12-01T08:00:40.856Z,68.4
2016-12-01T08:01:54.999Z,67.93
2016-12-01T08:03:09.492Z,67.83
2016-12-01T08:04:38.164Z,68.12
2016-12-01T08:05:52.584Z,68.21
2016-12-01T08:07:06.472Z,68.02
2016-12-01T08:08:21.184Z,67.93
2016-12-01T08:09:35.241Z,67.83
2016-12-01T08:10:49.659Z,67.65
2016-12-01T08:12:04.335Z,67.65
2016-12-01T08:13:18.240Z,67.55
2016-12-01T08:14:47.187Z,68.12
2016-12-01T08:16:16.110Z,67.93
2016-12-01T08:17:30.547Z,67.74
2016-12-01T08:18:44.421Z,67.46
2016-12-01T08:19:58.711Z,67.74
2016-12-01T08:21:12.639Z,68.21
2016-12-01T08:22:26.640Z,68.35
2016-12-01T08:23:40.362Z,67.83
2016-12-01T08:24:54.874Z,68.12
2016-12-01T08:26:09.067Z,67.96
2016-12-01T08:27:23.055Z,68.06
2016-12-01T08:28:37.134Z,67.77
2016-12-01T08:29:51.089Z,68.25
2016-12-01T08:31:05.182Z,68.12
2016-12-01T08:32:34.544Z,68.12
2016-12-01T08:33:49.300Z,68.35
2016-12-01T08:35:03.586Z,68.25
2016-12-01T08:36:17.619Z,68.25
2016-12-01T08:37:31.617Z,67.96
2016-12-01T08:38:46.334Z,67.96
2016-12-01T08:40:00.317Z,67.77
2016-12-01T08:41:14.978Z,68.25
2016-12-01T08:42:29.447Z,68.25
2016-12-01T08:43:43.760Z,68.35
2016-12-01T08:45:12.590Z,68.35
2016-12-01T08:46:26.443Z,68.35
2016-12-01T08:47:40.586Z,68.25
2016-12-01T08:48:54.775Z,68.35
2016-12-01T08:50:09.975Z,68.06
2016-12-01T08:51:24.154Z,68.06
2016-12-01T08:52:38.209Z,68.06
2016-12-01T08:53:52.095Z,68.82
2016-12-01T08:55:06.008Z,69.01
2016-12-01T08:56:19.943Z,68.91
2016-12-01T08:57:33.891Z,68.91
2016-12-01T08:58:48.476Z,69.29
2016-12-01T09:00:02.858Z,69.17
2016-12-01T09:01:17.215Z,69.35
2016-12-01T09:02:31.442Z,69.73
2016-12-01T09:03:45.765Z,69.73
2016-12-01T09:05:00.133Z,69.35
2016-12-01T09:06:14.129Z,69.01
2016-12-01T09:07:28.039Z,69.01
2016-12-01T09:08:57.373Z,69.48
2016-12-01T09:10:11.545Z,69.29
2016-12-01T09:11:26.293Z,69.01
2016-12-01T09:12:40.142Z,69.2
2016-12-01T09:13:54.197Z,69.2
2016-12-01T09:15:08.745Z,69.2
2016-12-01T09:16:22.651Z,68.98
2016-12-01T09:17:36.809Z,69.29
2016-12-01T09:18:52.891Z,69.29
2016-12-01T09:20:07.164Z,69.1
2016-12-01T09:21:21.286Z,69.48
2016-12-01T09:22:35.307Z,69.29
2016-12-01T09:23:49.638Z,68.82
2016-12-01T09:25:03.408Z,68.82
2016-12-01T09:26:17.206Z,68.82
2016-12-01T09:27:31.477Z,68.25
2016-12-01T09:28:45.352Z,68.15
2016-12-01T09:29:59.244Z,68.15
2016-12-01T09:31:14.087Z,67.87
2016-12-01T09:32:42.705Z,68.06
2016-12-01T09:33:56.867Z,67.87
2016-12-01T09:35:10.723Z,68.25
2016-12-01T09:36:25.502Z,68.35
2016-12-01T09:37:39.749Z,68.25
2016-12-01T09:38:54.002Z,67.87
2016-12-01T09:40:22.802Z,68.06
2016-12-01T09:41:37.132Z,68.06
2016-12-01T09:42:51.002Z,67.96
2016-12-01T09:44:05.254Z,67.87
2016-12-01T09:45:19.125Z,67.87
2016-12-01T09:46:33.531Z,67.87
2016-12-01T09:47:47.445Z,67.3
2016-12-01T09:49:01.660Z,67.96
2016-12-01T09:50:16.153Z,67.68
2016-12-01T09:51:30.192Z,67.58
2016-12-01T09:52:44.863Z,68.06
2016-12-01T09:53:59.501Z,68.15
2016-12-01T09:55:13.861Z,67.68
2016-12-01T09:56:27.689Z,67.68
2016-12-01T09:57:41.750Z,67.96
2016-12-01T09:58:55.677Z,68.06
2016-12-01T10:00:10.375Z,68.06
2016-12-01T10:01:24.707Z,68.06
2016-12-01T10:02:38.982Z,67.96
2016-12-01T10:03:53.352Z,67.49
2016-12-01T10:05:08.180Z,68.15
2016-12-01T10:06:21.889Z,67.87
2016-12-01T10:07:36.120Z,68.15
2016-12-01T10:08:50.289Z,67.96
2016-12-01T10:10:04.090Z,67.58
2016-12-01T10:11:18.520Z,67.58
2016-12-01T10:12:32.441Z,67.58
2016-12-01T10:13:46.576Z,67.77
2016-12-01T10:15:00.380Z,67.49
2016-12-01T10:16:14.199Z,67.58
2016-12-01T10:17:28.553Z,68.15
2016-12-01T10:18:42.744Z,67.96
2016-12-01T10:19:56.934Z,68.44
2016-12-01T10:21:11.217Z,68.25
2016-12-01T10:22:26.059Z,68.25
2016-12-01T10:23:40.197Z,68.25
2016-12-01T10:24:53.918Z,68.82
2016-12-01T10:26:07.636Z,68.63
2016-12-01T10:27:22.079Z,68.63
2016-12-01T10:28:36.435Z,68.82
2016-12-01T10:29:50.906Z,68.54
2016-12-01T10:31:04.944Z,68.35
2016-12-01T10:32:19.188Z,68.54
2016-12-01T10:33:33.873Z,68.73
2016-12-01T10:34:48.667Z,68.15
2016-12-01T10:36:05.813Z,68.35
2016-12-01T10:37:20.153Z,67.96
2016-12-01T10:38:34.287Z,68.15
2016-12-01T10:39:48.255Z,68.19
2016-12-01T10:41:02.327Z,68.06
2016-12-01T10:42:17.090Z,68.15
2016-12-01T10:43:31.347Z,68.1
2016-12-01T10:44:45.882Z,68
2016-12-01T10:46:00.542Z,67.71
2016-12-01T10:47:14.782Z,67.71
2016-12-01T10:48:29.566Z,67.33
2016-12-01T10:49:43.996Z,67.43
2016-12-01T10:50:58.542Z,67.33
2016-12-01T10:52:13.140Z,66.86
2016-12-01T10:53:27.239Z,66.67
2016-12-01T10:54:41.466Z,67.05
2016-12-01T10:55:55.545Z,66.77
2016-12-01T10:57:09.596Z,66.67
2016-12-01T10:58:24.559Z,66.29
2016-12-01T10:59:38.710Z,66.67
2016-12-01T11:00:53.224Z,66.86
2016-12-01T11:02:06.891Z,66.86
2016-12-01T11:03:35.535Z,67.43
2016-12-01T11:04:49.531Z,67.62
2016-12-01T11:06:03.316Z,67.43
2016-12-01T11:07:17.487Z,67.81
2016-12-01T11:08:31.825Z,67.71
2016-12-01T11:09:45.850Z,67.52
2016-12-01T11:10:59.930Z,67.71
2016-12-01T11:12:13.740Z,68.29
2016-12-01T11:13:27.937Z,68.1
2016-12-01T11:14:41.913Z,68.19
2016-12-01T11:15:56.081Z,68.29
2016-12-01T11:17:10.004Z,68.29
2016-12-01T11:18:24.416Z,68.29
2016-12-01T11:19:38.903Z,68
2016-12-01T11:20:53.740Z,68
2016-12-01T11:22:08.087Z,68.66
2016-12-01T11:23:23.318Z,68.66
2016-12-01T11:24:37.866Z,68.1
2016-12-01T11:25:54.317Z,68.38
2016-12-01T11:27:11.888Z,68.19
2016-12-01T11:28:27.570Z,68.19
2016-12-01T11:29:41.948Z,68.85
2016-12-01T11:30:57.752Z,68.38
2016-12-01T11:32:12.924Z,68.85
2016-12-01T11:33:27.465Z,68.95
2016-12-01T11:34:41.484Z,68.85
2016-12-01T11:35:55.658Z,69.13
2016-12-01T11:37:09.863Z,69.04
2016-12-01T11:38:25.561Z,68.57
2016-12-01T11:39:39.846Z,68.85
2016-12-01T11:40:54.000Z,68.29
2016-12-01T11:42:08.351Z,68.85
2016-12-01T11:43:22.367Z,68.38
2016-12-01T11:44:37.257Z,67.9
2016-12-01T11:45:52.164Z,68.48
2016-12-01T11:47:10.334Z,68.38
2016-12-01T11:48:47.153Z,68.76
2016-12-01T11:50:24.861Z,68.95
2016-12-01T11:51:51.791Z,69.33
2016-12-01T11:53:14.666Z,69.61
2016-12-01T11:54:58.802Z,69.23
2016-12-01T11:56:25.413Z,69.23
2016-12-01T11:57:49.235Z,68.95
2016-12-01T11:59:13.268Z,68.66
2016-12-01T12:00:35.934Z,68.66
2016-12-01T12:03:36.375Z,68
2016-12-01T12:04:55.863Z,68.29
2016-12-01T12:06:18.412Z,68.38
2016-12-01T12:09:12.793Z,67.9
2016-12-01T12:10:27.804Z,68.1
2016-12-01T12:11:44.866Z,68.1
2016-12-01T12:13:01.731Z,68.38
2016-12-01T12:14:16.587Z,68.19
2016-12-01T12:15:30.450Z,68.29
2016-12-01T12:16:44.649Z,68.19
2016-12-01T12:17:59.810Z,67.85
2016-12-01T12:19:15.153Z,68
2016-12-01T12:20:29.787Z,68.19
2016-12-01T12:21:44.210Z,68.19
2016-12-01T12:22:58.320Z,68.29
2016-12-01T12:24:13.465Z,68.1
2016-12-01T12:25:28.011Z,68.1
2016-12-01T12:26:42.382Z,68.48
2016-12-01T12:27:56.719Z,68.38
2016-12-01T12:29:11.280Z,68.19
2016-12-01T12:30:26.028Z,68.76
2016-12-01T12:31:40.874Z,68.76
2016-12-01T12:32:55.225Z,68.95
2016-12-01T12:34:09.793Z,69.33
2016-12-01T12:35:24.264Z,69.23
2016-12-01T12:36:39.145Z,69.33
2016-12-01T12:37:54.102Z,69.04
2016-12-01T12:39:08.900Z,68.95
2016-12-01T12:40:23.762Z,69.13
2016-12-01T12:41:38.720Z,69.13
2016-12-01T12:42:53.208Z,69.23
2016-12-01T12:44:07.585Z,69.23
2016-12-01T12:45:21.618Z,69.04
2016-12-01T12:46:35.638Z,69.33
2016-12-01T12:48:04.597Z,69.04
2016-12-01T12:49:19.757Z,68.95
2016-12-01T12:50:34.071Z,69.33
2016-12-01T12:51:48.293Z,69.33
2016-12-01T12:53:02.681Z,69.42
2016-12-01T12:54:17.269Z,69.42
2016-12-01T12:55:32.038Z,69.33
2016-12-01T12:56:45.814Z,69.42
2016-12-01T12:57:59.666Z,69.42
2016-12-01T12:59:14.062Z,69.42
2016-12-01T13:00:28.100Z,68.85
2016-12-01T13:01:42.909Z,69.33
2016-12-01T13:02:56.626Z,69.9
2016-12-01T13:04:11.282Z,69.99
2016-12-01T13:05:25.421Z,70.09
2016-12-01T13:06:39.648Z,69.9
2016-12-01T13:07:54.482Z,69.8
2016-12-01T13:09:08.881Z,69.99
2016-12-01T13:10:22.718Z,69.9
2016-12-01T13:11:36.768Z,70.09
2016-12-01T13:12:50.751Z,70.28
2016-12-01T13:14:07.635Z,70.09
2016-12-01T13:15:21.974Z,70.56
2016-12-01T13:16:36.096Z,70.94
2016-12-01T13:18:05.284Z,70.84
2016-12-01T13:19:19.591Z,70.94
2016-12-01T13:20:33.328Z,70.84
2016-12-01T13:21:47.654Z,70.18
2016-12-01T13:23:01.611Z,70.84
2016-12-01T13:24:15.734Z,70.65
2016-12-01T13:25:29.659Z,70.47
2016-12-01T13:26:44.155Z,69.99
2016-12-01T13:27:58.683Z,70.18
2016-12-01T13:29:12.907Z,70.09
2016-12-01T13:30:26.871Z,70.28
2016-12-01T13:31:40.969Z,70.09
2016-12-01T13:32:55.030Z,70.18
2016-12-01T13:34:09.341Z,70.28
2016-12-01T13:35:23.839Z,70.28
2016-12-01T13:36:38.415Z,70.37
2016-12-01T13:37:52.638Z,70.56
2016-12-01T13:39:06.976Z,71.13
2016-12-01T13:40:21.056Z,70.94
2016-12-01T13:41:50.673Z,71.03
2016-12-01T13:43:04.871Z,71.13
2016-12-01T13:44:19.657Z,70.75
2016-12-01T13:45:33.676Z,70.75
2016-12-01T13:46:48.058Z,71.41
2016-12-01T13:48:02.735Z,71.32
2016-12-01T13:49:16.712Z,71.32
2016-12-01T13:50:31.197Z,70.84
2016-12-01T13:51:45.823Z,70.84
2016-12-01T13:53:00.002Z,70.28
2016-12-01T13:54:14.703Z,70.75
2016-12-01T13:55:28.633Z,71.03
2016-12-01T13:56:42.655Z,70.94
2016-12-01T13:57:57.319Z,70.75
2016-12-01T13:59:11.592Z,70.65
2016-12-01T14:00:25.752Z,70.94
2016-12-01T14:01:39.548Z,70.84
2016-12-01T14:02:53.676Z,70.65
2016-12-01T14:04:07.877Z,70.56
2016-12-01T14:05:21.782Z,70.28
2016-12-01T14:06:36.432Z,70.56
2016-12-01T14:07:50.476Z,70.75
2016-12-01T14:09:04.704Z,70.47
2016-12-01T14:10:18.861Z,70.47
2016-12-01T14:11:32.688Z,70.18
2016-12-01T14:12:46.885Z,69.99
2016-12-01T14:14:01.381Z,70.12
2016-12-01T14:15:15.564Z,70.18
2016-12-01T14:16:29.776Z,69.99
2016-12-01T14:17:43.755Z,69.9
2016-12-01T14:18:58.372Z,70.09
2016-12-01T14:20:12.560Z,70.37
2016-12-01T14:21:26.587Z,70.37
2016-12-01T14:22:41.021Z,70.09
2016-12-01T14:23:54.914Z,70.31
2016-12-01T14:25:09.189Z,70.56
2016-12-01T14:26:23.134Z,70.94
2016-12-01T14:27:37.594Z,70.56
2016-12-01T14:29:06.313Z,71.03
2016-12-01T14:30:20.013Z,70.84
2016-12-01T14:31:36.591Z,70.65
2016-12-01T14:32:50.783Z,70.75
2016-12-01T14:34:05.221Z,70.94
2016-12-01T14:35:19.118Z,71.03
2016-12-01T14:36:33.417Z,70.84
2016-12-01T14:37:47.729Z,70.47
2016-12-01T14:39:02.120Z,70.37
2016-12-01T14:40:16.539Z,70.47
2016-12-01T14:41:30.968Z,70.37
2016-12-01T14:42:45.107Z,70.47
2016-12-01T14:43:59.776Z,70.78
2016-12-01T14:45:14.324Z,71.03
2016-12-01T14:46:28.767Z,70.84
2016-12-01T14:47:43.005Z,70.84
2016-12-01T14:48:57.139Z,70.94
2016-12-01T14:50:11.804Z,70.65
2016-12-01T14:51:25.944Z,70.65
2016-12-01T14:52:40.109Z,71.41
2016-12-01T14:53:54.341Z,71.41
2016-12-01T14:55:09.059Z,71.51
2016-12-01T14:56:23.354Z,71.8
2016-12-01T14:57:37.603Z,71.7
2016-12-01T14:58:51.587Z,71.51
2016-12-01T15:00:05.550Z,71.32
2016-12-01T15:01:19.664Z,71.22
2016-12-01T15:02:34.064Z,71.73
2016-12-01T15:03:48.403Z,71.41
2016-12-01T15:05:02.567Z,71.7
2016-12-01T15:06:17.427Z,72.17
2016-12-01T15:07:31.655Z,72.08
2016-12-01T15:08:46.063Z,72.27
2016-12-01T15:10:00.755Z,72.08
2016-12-01T15:11:14.858Z,71.98
2016-12-01T15:12:28.962Z,71.98
2016-12-01T15:13:43.067Z,71.8
2016-12-01T15:14:57.798Z,72.27
2016-12-01T15:16:13.535Z,72.17
2016-12-01T15:17:27.680Z,72.17
2016-12-01T15:18:41.945Z,71.98
2016-12-01T15:19:56.738Z,71.98
2016-12-01T15:21:10.977Z,71.8
2016-12-01T15:22:25.771Z,72.27
2016-12-01T15:23:41.559Z,71.8
2016-12-01T15:24:56.099Z,71.7
2016-12-01T15:26:11.572Z,71.89
2016-12-01T15:27:25.491Z,71.92
2016-12-01T15:28:39.533Z,71.89
2016-12-01T15:29:53.807Z,72.08
2016-12-01T15:31:08.322Z,71.73
2016-12-01T15:32:23.116Z,71.73
2016-12-01T15:33:37.314Z,71.8
2016-12-01T15:34:51.593Z,71.83
2016-12-01T15:36:05.411Z,71.73
2016-12-01T15:37:19.249Z,71.83
2016-12-01T15:38:33.516Z,71.92
2016-12-01T15:39:48.399Z,71.92
2016-12-01T15:41:02.846Z,72.08
2016-12-01T15:42:17.405Z,72.08
2016-12-01T15:43:31.655Z,71.89
2016-12-01T15:44:45.419Z,71.73
2016-12-01T15:45:59.435Z,71.73
2016-12-01T15:47:14.207Z,71.55
2016-12-01T15:48:31.207Z,71.83
2016-12-01T15:49:45.281Z,71.45
2016-12-01T15:50:59.464Z,71.45
2016-12-01T15:52:13.505Z,71.13
2016-12-01T15:53:28.249Z,71.32
2016-12-01T15:54:42.533Z,71.32
2016-12-01T15:55:57.157Z,71.7
2016-12-01T15:57:11.257Z,71.7
2016-12-01T15:58:25.820Z,71.41
2016-12-01T15:59:40.562Z,71.6
2016-12-01T16:00:54.633Z,71.6
2016-12-01T16:02:08.746Z,71.7
2016-12-01T16:03:22.939Z,71.6
2016-12-01T16:04:38.471Z,71.7
2016-12-01T16:05:53.248Z,71.6
2016-12-01T16:07:25.315Z,71.7
2016-12-01T16:10:34.832Z,71.22
2016-12-01T16:12:03.876Z,71.7
2016-12-01T16:13:20.759Z,71.89
2016-12-01T16:14:37.749Z,72.27
2016-12-01T16:15:52.575Z,71.98
2016-12-01T16:17:08.230Z,71.89
2016-12-01T16:18:23.578Z,71.89
2016-12-01T16:19:37.967Z,71.7
2016-12-01T16:20:52.191Z,71.7
2016-12-01T16:22:06.374Z,71.8
2016-12-01T16:23:20.509Z,71.7
2016-12-01T16:24:34.634Z,71.89